Time,TemperatureF,DewpointF,PressureIn,WindDirection,WindDirectionDegrees,WindSpeedMPH,WindSpeedGustMPH,Humidity,HourlyPrecipIn,Conditions,Clouds,dailyrainin,SoftwareType,DateUTC
2013-02-01 00:00:00,12.7,5.1,30.10,SW,225,0.0,17.0,71,0.00,,,0.00,WUHU216HW,2013-02-01 05:00:00,
2013-02-01 00:05:00,12.7,5.1,30.10,West,270,5.3,17.0,71,0.00,,,0.00,WUHU216HW,2013-02-01 05:05:00,
2013-02-01 00:10:00,12.5,4.6,30.11,WNW,293,12.9,12.9,70,0.00,,,0.00,WUHU216HW,2013-02-01 05:10:00,
2013-02-01 00:15:00,12.2,3.9,30.10,NW,315,8.0,12.9,69,0.00,,,0.00,WUHU216HW,2013-02-01 05:15:00,
2013-02-01 00:20:00,12.0,4.1,30.11,NNW,338,2.2,12.9,70,0.00,,,0.00,WUHU216HW,2013-02-01 05:20:00,
2013-02-01 00:25:00,12.0,4.1,30.11,WSW,248,3.5,3.5,70,0.00,,,0.00,WUHU216HW,2013-02-01 05:25:00,
2013-02-01 00:30:00,11.8,3.9,30.11,North,0,0.0,7.6,70,0.00,,,0.00,WUHU216HW,2013-02-01 05:30:00,
2013-02-01 00:35:00,11.8,3.9,30.11,WNW,293,10.2,10.2,70,0.00,,,0.00,WUHU216HW,2013-02-01 05:35:00,
2013-02-01 00:40:00,11.6,3.7,30.12,West,270,3.5,10.2,70,0.00,,,0.00,WUHU216HW,2013-02-01 05:40:00,
2013-02-01 00:45:00,11.6,3.8,30.12,NW,315,16.3,16.3,70,0.00,,,0.00,WUHU216HW,2013-02-01 05:45:00,
2013-02-01 00:50:00,11.4,3.8,30.12,NW,315,0.0,16.3,71,0.00,,,0.00,WUHU216HW,2013-02-01 05:50:00,
2013-02-01 00:55:00,11.4,3.8,30.13,WNW,293,14.9,16.3,71,0.00,,,0.00,WUHU216HW,2013-02-01 05:55:00,
2013-02-01 01:00:00,11.4,3.8,30.13,NNW,338,0.0,14.9,71,0.00,,,0.00,WUHU216HW,2013-02-01 06:00:00,
2013-02-01 01:05:00,11.3,3.9,30.13,NNW,338,0.0,14.9,72,0.00,,,0.00,WUHU216HW,2013-02-01 06:05:00,
2013-02-01 01:10:00,11.3,3.6,30.13,West,270,5.8,6.4,71,0.00,,,0.00,WUHU216HW,2013-02-01 06:10:00,
2013-02-01 01:15:00,11.1,3.4,30.13,WSW,248,10.5,13.4,71,0.00,,,0.00,WUHU216HW,2013-02-01 06:15:00,
2013-02-01 01:20:00,11.1,3.2,30.14,NNW,338,5.5,13.4,70,0.00,,,0.00,WUHU216HW,2013-02-01 06:20:00,
2013-02-01 01:25:00,11.1,3.2,30.14,West,270,0.0,10.5,70,0.00,,,0.00,WUHU216HW,2013-02-01 06:25:00,
2013-02-01 01:30:00,10.9,3.0,30.14,NW,315,5.5,10.5,70,0.00,,,0.00,WUHU216HW,2013-02-01 06:30:00,
2013-02-01 01:35:00,10.9,3.0,30.15,WNW,293,4.4,10.5,70,0.00,,,0.00,WUHU216HW,2013-02-01 06:35:00,
2013-02-01 01:40:00,10.7,2.8,30.15,West,270,5.1,5.5,70,0.00,,,0.00,WUHU216HW,2013-02-01 06:40:00,
2013-02-01 01:45:00,10.5,2.3,30.15,West,270,0.0,17.8,69,0.00,,,0.00,WUHU216HW,2013-02-01 06:45:00,
2013-02-01 01:50:00,10.4,2.1,30.16,West,270,5.5,17.8,69,0.00,,,0.00,WUHU216HW,2013-02-01 06:50:00,
2013-02-01 01:55:00,10.2,1.9,30.16,NW,315,0.0,5.5,69,0.00,,,0.00,WUHU216HW,2013-02-01 06:55:00,
2013-02-01 02:00:00,10.2,1.9,30.16,NW,315,6.4,7.3,69,0.00,,,0.00,WUHU216HW,2013-02-01 07:00:00,
2013-02-01 02:05:00,10.0,1.8,30.17,SSW,203,0.0,7.3,69,0.00,,,0.00,WUHU216HW,2013-02-01 07:05:00,
2013-02-01 02:10:00,10.0,1.4,30.17,WNW,293,0.0,6.4,68,0.00,,,0.00,WUHU216HW,2013-02-01 07:10:00,
2013-02-01 02:15:00,9.6,1.1,30.18,West,270,7.8,7.8,68,0.00,,,0.00,WUHU216HW,2013-02-01 07:15:00,
2013-02-01 02:20:00,9.6,1.1,30.18,West,270,0.0,7.8,68,0.00,,,0.00,WUHU216HW,2013-02-01 07:20:00,
2013-02-01 02:25:00,9.6,1.4,30.18,WNW,293,0.0,7.8,69,0.00,,,0.00,WUHU216HW,2013-02-01 07:25:00,
2013-02-01 02:30:00,9.6,1.4,30.18,WNW,293,2.4,2.4,69,0.00,,,0.00,WUHU216HW,2013-02-01 07:30:00,
2013-02-01 02:35:00,9.6,1.4,30.19,WNW,293,0.0,2.4,69,0.00,,,0.00,WUHU216HW,2013-02-01 07:35:00,
2013-02-01 02:40:00,9.6,1.4,30.19,WSW,248,0.0,2.4,69,0.00,,,0.00,WUHU216HW,2013-02-01 07:40:00,
2013-02-01 02:45:00,9.6,1.3,30.19,NW,315,6.2,13.4,69,0.00,,,0.00,WUHU216HW,2013-02-01 07:45:00,
2013-02-01 02:50:00,9.3,1.1,30.19,WNW,293,0.0,13.4,69,0.00,,,0.00,WUHU216HW,2013-02-01 07:50:00,
2013-02-01 02:55:00,9.3,1.5,30.19,North,0,0.0,6.2,70,0.00,,,0.00,WUHU216HW,2013-02-01 07:55:00,
2013-02-01 03:00:00,9.3,1.5,30.20,NW,315,0.0,8.5,70,0.00,,,0.00,WUHU216HW,2013-02-01 08:00:00,
2013-02-01 03:05:00,9.1,1.3,30.20,West,270,0.0,8.5,70,0.00,,,0.00,WUHU216HW,2013-02-01 08:05:00,
2013-02-01 03:10:00,9.1,1.3,30.20,WNW,293,9.3,9.3,70,0.00,,,0.00,WUHU216HW,2013-02-01 08:10:00,
2013-02-01 03:15:00,9.1,1.0,30.21,West,270,13.4,13.4,69,0.00,,,0.00,WUHU216HW,2013-02-01 08:15:00,
2013-02-01 03:20:00,9.1,1.0,30.21,NNW,338,0.0,13.4,69,0.00,,,0.00,WUHU216HW,2013-02-01 08:20:00,
2013-02-01 03:25:00,9.1,1.3,30.21,SW,225,3.5,13.4,70,0.00,,,0.00,WUHU216HW,2013-02-01 08:25:00,
2013-02-01 03:30:00,8.9,1.1,30.22,WSW,248,0.0,7.8,70,0.00,,,0.00,WUHU216HW,2013-02-01 08:30:00,
2013-02-01 03:35:00,8.9,1.1,30.21,NW,315,1.1,7.8,70,0.00,,,0.00,WUHU216HW,2013-02-01 08:35:00,
2013-02-01 03:40:00,8.7,1.0,30.21,WNW,293,6.2,6.2,70,0.00,,,0.00,WUHU216HW,2013-02-01 08:40:00,
2013-02-01 03:45:00,8.7,1.0,30.21,SW,225,5.3,11.1,70,0.00,,,0.00,WUHU216HW,2013-02-01 08:45:00,
2013-02-01 03:50:00,8.6,0.8,30.21,SW,225,3.3,11.1,70,0.00,,,0.00,WUHU216HW,2013-02-01 08:50:00,
2013-02-01 03:55:00,8.6,0.8,30.22,West,270,0.0,5.3,70,0.00,,,0.00,WUHU216HW,2013-02-01 08:55:00,
2013-02-01 04:00:00,8.4,0.6,30.22,WSW,248,0.8,3.3,70,0.00,,,0.00,WUHU216HW,2013-02-01 09:00:00,
2013-02-01 04:05:00,8.4,0.6,30.22,WSW,248,0.6,0.8,70,0.00,,,0.00,WUHU216HW,2013-02-01 09:05:00,
2013-02-01 04:10:00,8.4,0.6,30.22,WSW,248,0.0,0.8,70,0.00,,,0.00,WUHU216HW,2013-02-01 09:10:00,
2013-02-01 04:15:00,8.4,0.6,30.22,WNW,293,0.0,9.1,70,0.00,,,0.00,WUHU216HW,2013-02-01 09:15:00,
2013-02-01 04:20:00,8.4,0.6,30.22,WNW,293,0.0,9.1,70,0.00,,,0.00,WUHU216HW,2013-02-01 09:20:00,
2013-02-01 04:25:00,8.2,0.5,30.22,WNW,293,2.9,5.1,70,0.00,,,0.00,WUHU216HW,2013-02-01 09:25:00,
2013-02-01 04:30:00,8.2,0.5,30.22,SW,225,0.0,4.6,70,0.00,,,0.00,WUHU216HW,2013-02-01 09:30:00,
2013-02-01 04:35:00,8.2,0.5,30.23,West,270,0.0,4.6,70,0.00,,,0.00,WUHU216HW,2013-02-01 09:35:00,
2013-02-01 04:40:00,8.0,0.3,30.23,West,270,2.0,2.0,70,0.00,,,0.00,WUHU216HW,2013-02-01 09:40:00,
2013-02-01 04:45:00,8.0,0.3,30.23,NNW,338,4.6,4.6,70,0.00,,,0.00,WUHU216HW,2013-02-01 09:45:00,
2013-02-01 04:50:00,7.8,0.1,30.23,WNW,293,0.0,4.6,70,0.00,,,0.00,WUHU216HW,2013-02-01 09:50:00,
2013-02-01 04:55:00,7.8,0.1,30.24,West,270,2.4,4.6,70,0.00,,,0.00,WUHU216HW,2013-02-01 09:55:00,
2013-02-01 05:00:00,8.0,0.3,30.24,WSW,248,1.3,6.2,70,0.00,,,0.00,WUHU216HW,2013-02-01 10:00:00,
2013-02-01 05:05:00,8.0,0.3,30.24,WNW,293,1.3,6.2,70,0.00,,,0.00,WUHU216HW,2013-02-01 10:05:00,
2013-02-01 05:10:00,8.0,0.3,30.24,West,270,4.6,4.6,70,0.00,,,0.00,WUHU216HW,2013-02-01 10:10:00,
2013-02-01 05:15:00,7.8,0.1,30.24,West,270,2.0,4.6,70,0.00,,,0.00,WUHU216HW,2013-02-01 10:15:00,
2013-02-01 05:20:00,7.8,0.1,30.24,West,270,7.3,7.3,70,0.00,,,0.00,WUHU216HW,2013-02-01 10:20:00,
2013-02-01 05:25:00,7.8,0.1,30.24,WNW,293,8.7,8.7,70,0.00,,,0.00,WUHU216HW,2013-02-01 10:25:00,
2013-02-01 05:30:00,7.7,0.0,30.25,WNW,293,0.0,8.7,70,0.00,,,0.00,WUHU216HW,2013-02-01 10:30:00,
2013-02-01 05:35:00,7.7,0.0,30.25,West,270,0.0,0.0,70,0.00,,,0.00,WUHU216HW,2013-02-01 10:35:00,
2013-02-01 05:40:00,7.7,0.0,30.25,East,90,5.8,5.8,70,0.00,,,0.00,WUHU216HW,2013-02-01 10:40:00,
2013-02-01 05:45:00,7.5,-0.2,30.25,NW,315,4.6,5.8,70,0.00,,,0.00,WUHU216HW,2013-02-01 10:45:00,
2013-02-01 05:50:00,7.5,-0.2,30.25,SW,225,0.0,6.9,70,0.00,,,0.00,WUHU216HW,2013-02-01 10:50:00,
2013-02-01 05:55:00,7.5,-0.2,30.26,WNW,293,0.0,6.9,70,0.00,,,0.00,WUHU216HW,2013-02-01 10:55:00,
2013-02-01 06:00:00,7.5,-0.2,30.26,WSW,248,0.0,8.2,70,0.00,,,0.00,WUHU216HW,2013-02-01 11:00:00,
2013-02-01 06:05:00,7.5,-0.2,30.26,NW,315,0.0,8.2,70,0.00,,,0.00,WUHU216HW,2013-02-01 11:05:00,
2013-02-01 06:10:00,7.5,-0.2,30.26,WNW,293,0.0,0.0,70,0.00,,,0.00,WUHU216HW,2013-02-01 11:10:00,
2013-02-01 06:15:00,7.5,-0.2,30.26,NW,315,0.0,2.2,70,0.00,,,0.00,WUHU216HW,2013-02-01 11:15:00,
2013-02-01 06:20:00,7.3,-0.4,30.26,WSW,248,3.5,3.5,70,0.00,,,0.00,WUHU216HW,2013-02-01 11:20:00,
2013-02-01 06:25:00,7.3,-0.4,30.27,West,270,2.4,5.1,70,0.00,,,0.00,WUHU216HW,2013-02-01 11:25:00,
2013-02-01 06:31:00,7.3,-0.4,30.27,NW,315,0.0,5.1,70,0.00,,,0.00,WUHU216HW,2013-02-01 11:31:00,
2013-02-01 06:36:00,7.1,-0.5,30.27,WNW,293,2.9,4.4,70,0.00,,,0.00,WUHU216HW,2013-02-01 11:36:00,
2013-02-01 06:41:00,7.1,-0.5,30.27,WNW,293,9.3,9.3,70,0.00,,,0.00,WUHU216HW,2013-02-01 11:41:00,
2013-02-01 06:46:00,7.1,-0.5,30.27,West,270,0.0,9.3,70,0.00,,,0.00,WUHU216HW,2013-02-01 11:46:00,
2013-02-01 06:51:00,6.9,-0.7,30.27,NW,315,4.9,4.9,70,0.00,,,0.00,WUHU216HW,2013-02-01 11:51:00,
2013-02-01 06:56:00,6.9,-0.7,30.27,West,270,1.1,4.9,70,0.00,,,0.00,WUHU216HW,2013-02-01 11:56:00,
2013-02-01 07:01:00,6.9,-0.4,30.27,West,270,0.0,4.9,71,0.00,,,0.00,WUHU216HW,2013-02-01 12:01:00,
2013-02-01 07:06:00,6.9,-0.4,30.27,West,270,0.0,2.0,71,0.00,,,0.00,WUHU216HW,2013-02-01 12:06:00,
2013-02-01 07:11:00,6.9,-0.4,30.27,West,270,0.0,2.0,71,0.00,,,0.00,WUHU216HW,2013-02-01 12:11:00,
2013-02-01 07:16:00,6.9,-0.4,30.27,West,270,2.2,2.2,71,0.00,,,0.00,WUHU216HW,2013-02-01 12:16:00,
2013-02-01 07:21:00,6.9,-0.4,30.27,WNW,293,0.0,2.2,71,0.00,,,0.00,WUHU216HW,2013-02-01 12:21:00,
2013-02-01 07:26:00,6.9,-0.4,30.27,NW,315,0.0,2.2,71,0.00,,,0.00,WUHU216HW,2013-02-01 12:26:00,
2013-02-01 07:31:00,6.9,-0.4,30.28,West,270,0.0,0.0,71,0.00,,,0.00,WUHU216HW,2013-02-01 12:31:00,
2013-02-01 07:36:00,6.9,-0.4,30.28,West,270,0.0,0.0,71,0.00,,,0.00,WUHU216HW,2013-02-01 12:36:00,
2013-02-01 07:41:00,6.8,-0.6,30.28,WNW,293,0.0,0.0,71,0.00,,,0.00,WUHU216HW,2013-02-01 12:41:00,
2013-02-01 07:46:00,6.6,-0.8,30.29,WNW,293,0.0,0.0,71,0.00,,,0.00,WUHU216HW,2013-02-01 12:46:00,
2013-02-01 07:51:00,6.6,-0.8,30.29,WNW,293,0.0,0.0,71,0.00,,,0.00,WUHU216HW,2013-02-01 12:51:00,
2013-02-01 07:56:00,6.6,-0.8,30.29,WNW,293,0.0,0.0,71,0.00,,,0.00,WUHU216HW,2013-02-01 12:56:00,
2013-02-01 08:01:00,6.6,-0.5,30.29,WNW,293,0.0,0.0,72,0.00,,,0.00,WUHU216HW,2013-02-01 13:01:00,
2013-02-01 08:06:00,6.6,-0.5,30.29,WNW,293,0.0,0.0,72,0.00,,,0.00,WUHU216HW,2013-02-01 13:06:00,
2013-02-01 08:11:00,6.6,-0.5,30.29,WNW,293,0.0,0.0,72,0.00,,,0.00,WUHU216HW,2013-02-01 13:11:00,
2013-02-01 08:16:00,6.6,-0.5,30.29,WNW,293,0.0,0.0,72,0.00,,,0.00,WUHU216HW,2013-02-01 13:16:00,
2013-02-01 08:21:00,6.6,-0.5,30.30,WNW,293,0.0,0.0,72,0.00,,,0.00,WUHU216HW,2013-02-01 13:21:00,
2013-02-01 08:26:00,6.6,-0.5,30.30,West,270,0.0,0.0,72,0.00,,,0.00,WUHU216HW,2013-02-01 13:26:00,
2013-02-01 08:31:00,6.6,-0.5,30.30,West,270,0.0,0.0,72,0.00,,,0.00,WUHU216HW,2013-02-01 13:31:00,
2013-02-01 08:36:00,6.9,-0.1,30.30,West,270,0.0,0.0,72,0.00,,,0.00,WUHU216HW,2013-02-01 13:36:00,
2013-02-01 08:41:00,6.9,0.1,30.30,West,270,0.0,0.0,73,0.00,,,0.00,WUHU216HW,2013-02-01 13:41:00,
2013-02-01 08:46:00,7.1,0.2,30.30,WNW,293,0.0,0.0,73,0.00,,,0.00,WUHU216HW,2013-02-01 13:46:00,
2013-02-01 08:51:00,7.3,0.4,30.30,West,270,0.0,0.0,73,0.00,,,0.00,WUHU216HW,2013-02-01 13:51:00,
2013-02-01 08:56:00,7.3,0.4,30.31,WSW,248,0.0,0.0,73,0.00,,,0.00,WUHU216HW,2013-02-01 13:56:00,
2013-02-01 09:01:00,7.5,0.6,30.31,WSW,248,0.0,0.0,73,0.00,,,0.00,WUHU216HW,2013-02-01 14:01:00,
2013-02-01 09:06:00,7.8,1.0,30.32,West,270,0.0,0.8,73,0.00,,,0.00,WUHU216HW,2013-02-01 14:06:00,
2013-02-01 09:11:00,7.8,1.0,30.33,SSW,203,1.7,1.7,73,0.00,,,0.00,WUHU216HW,2013-02-01 14:11:00,
2013-02-01 09:16:00,7.8,0.7,30.32,West,270,0.0,1.7,72,0.00,,,0.00,WUHU216HW,2013-02-01 14:16:00,
2013-02-01 09:21:00,7.8,0.7,30.33,West,270,0.0,8.7,72,0.00,,,0.00,WUHU216HW,2013-02-01 14:21:00,
2013-02-01 09:26:00,8.0,0.8,30.33,WSW,248,0.0,8.7,72,0.00,,,0.00,WUHU216HW,2013-02-01 14:26:00,
2013-02-01 09:31:00,8.0,0.8,30.33,WSW,248,2.9,2.9,72,0.00,,,0.00,WUHU216HW,2013-02-01 14:31:00,
2013-02-01 09:36:00,8.2,1.0,30.33,NNW,338,2.9,2.9,72,0.00,,,0.00,WUHU216HW,2013-02-01 14:36:00,
2013-02-01 09:41:00,8.4,1.2,30.34,SW,225,4.0,4.0,72,0.00,,,0.00,WUHU216HW,2013-02-01 14:41:00,
2013-02-01 09:46:00,8.7,1.5,30.34,WSW,248,0.0,4.9,72,0.00,,,0.00,WUHU216HW,2013-02-01 14:46:00,
2013-02-01 09:51:00,8.9,1.7,30.34,South,180,6.2,6.2,72,0.00,,,0.00,WUHU216HW,2013-02-01 14:51:00,
2013-02-01 09:56:00,9.1,1.9,30.34,SW,225,9.6,9.6,72,0.00,,,0.00,WUHU216HW,2013-02-01 14:56:00,
2013-02-01 10:01:00,9.3,1.7,30.34,South,180,3.8,9.6,71,0.00,,,0.00,WUHU216HW,2013-02-01 15:01:00,
2013-02-01 10:06:00,9.6,2.1,30.34,WSW,248,4.0,6.2,71,0.00,,,0.00,WUHU216HW,2013-02-01 15:06:00,
2013-02-01 10:11:00,9.6,2.1,30.34,SW,225,6.9,6.9,71,0.00,,,0.00,WUHU216HW,2013-02-01 15:11:00,
2013-02-01 10:16:00,10.0,2.4,30.34,WSW,248,0.0,7.1,71,0.00,,,0.00,WUHU216HW,2013-02-01 15:16:00,
2013-02-01 10:21:00,10.2,2.6,30.34,SW,225,6.2,7.1,71,0.00,,,0.00,WUHU216HW,2013-02-01 15:21:00,
2013-02-01 10:26:00,10.5,2.9,30.34,SW,225,6.4,6.4,71,0.00,,,0.00,WUHU216HW,2013-02-01 15:26:00,
2013-02-01 10:31:00,10.9,3.3,30.34,West,270,0.0,6.4,71,0.00,,,0.00,WUHU216HW,2013-02-01 15:31:00,
2013-02-01 10:36:00,11.1,3.4,30.35,NW,315,8.5,8.5,71,0.00,,,0.00,WUHU216HW,2013-02-01 15:36:00,
2013-02-01 10:41:00,11.1,3.2,30.35,SSE,158,0.0,8.5,70,0.00,,,0.00,WUHU216HW,2013-02-01 15:41:00,
2013-02-01 10:46:00,11.4,3.5,30.35,NW,315,1.3,8.5,70,0.00,,,0.00,WUHU216HW,2013-02-01 15:46:00,
2013-02-01 10:51:00,11.8,3.9,30.35,SSW,203,0.0,6.7,70,0.00,,,0.00,WUHU216HW,2013-02-01 15:51:00,
2013-02-01 10:56:00,11.8,3.9,30.35,SW,225,0.0,6.7,70,0.00,,,0.00,WUHU216HW,2013-02-01 15:56:00,
2013-02-01 11:01:00,12.0,4.1,30.36,WSW,248,7.3,7.3,70,0.00,,,0.00,WUHU216HW,2013-02-01 16:01:00,
2013-02-01 11:06:00,12.0,4.1,30.36,WSW,248,0.0,7.3,70,0.00,,,0.00,WUHU216HW,2013-02-01 16:06:00,
2013-02-01 11:11:00,12.2,3.9,30.36,WNW,293,4.2,7.3,69,0.00,,,0.00,WUHU216HW,2013-02-01 16:11:00,
2013-02-01 11:16:00,12.3,4.1,30.36,ESE,113,0.0,10.7,69,0.00,,,0.00,WUHU216HW,2013-02-01 16:16:00,
2013-02-01 11:21:00,12.7,4.4,30.36,SSW,203,5.5,10.7,69,0.00,,,0.00,WUHU216HW,2013-02-01 16:21:00,
2013-02-01 11:26:00,12.7,4.4,30.36,NNE,23,0.0,5.5,69,0.00,,,0.00,WUHU216HW,2013-02-01 16:26:00,
2013-02-01 11:31:00,13.1,4.8,30.37,WSW,248,2.4,5.5,69,0.00,,,0.00,WUHU216HW,2013-02-01 16:31:00,
2013-02-01 11:36:00,13.2,5.0,30.37,SSW,203,1.1,2.4,69,0.00,,,0.00,WUHU216HW,2013-02-01 16:36:00,
2013-02-01 11:41:00,13.2,5.0,30.37,NW,315,0.0,2.4,69,0.00,,,0.00,WUHU216HW,2013-02-01 16:41:00,
2013-02-01 11:46:00,13.2,5.0,30.37,WNW,293,0.0,5.1,69,0.00,,,0.00,WUHU216HW,2013-02-01 16:46:00,
2013-02-01 11:51:00,13.1,4.4,30.37,SSE,158,6.2,6.2,68,0.00,,,0.00,WUHU216HW,2013-02-01 16:51:00,
2013-02-01 11:56:00,12.9,4.6,30.37,West,270,0.0,6.2,69,0.00,,,0.00,WUHU216HW,2013-02-01 16:56:00,
2013-02-01 12:01:00,13.2,5.0,30.37,West,270,0.0,4.4,69,0.00,,,0.00,WUHU216HW,2013-02-01 17:01:00,
2013-02-01 12:06:00,13.6,5.3,30.37,NNW,338,2.9,4.4,69,0.00,,,0.00,WUHU216HW,2013-02-01 17:06:00,
2013-02-01 12:11:00,14.0,5.3,30.37,WSW,248,3.5,5.3,68,0.00,,,0.00,WUHU216HW,2013-02-01 17:11:00,
2013-02-01 12:16:00,14.1,5.5,30.37,WSW,248,5.1,17.6,68,0.00,,,0.00,WUHU216HW,2013-02-01 17:16:00,
2013-02-01 12:21:00,14.1,5.5,30.36,SSE,158,2.4,17.6,68,0.00,,,0.00,WUHU216HW,2013-02-01 17:21:00,
2013-02-01 12:26:00,14.3,5.7,30.37,West,270,4.9,4.9,68,0.00,,,0.00,WUHU216HW,2013-02-01 17:26:00,
2013-02-01 12:31:00,14.1,5.2,30.37,West,270,0.0,4.9,67,0.00,,,0.00,WUHU216HW,2013-02-01 17:31:00,
2013-02-01 12:36:00,14.1,5.5,30.36,SW,225,6.4,6.4,68,0.00,,,0.00,WUHU216HW,2013-02-01 17:36:00,
2013-02-01 12:41:00,14.3,5.3,30.36,WNW,293,2.0,6.4,67,0.00,,,0.00,WUHU216HW,2013-02-01 17:41:00,
2013-02-01 12:46:00,14.1,5.2,30.36,SW,225,0.0,4.9,67,0.00,,,0.00,WUHU216HW,2013-02-01 17:46:00,
2013-02-01 12:51:00,14.1,5.2,30.35,SW,225,4.0,4.9,67,0.00,,,0.00,WUHU216HW,2013-02-01 17:51:00,
2013-02-01 12:56:00,14.1,5.2,30.35,South,180,0.0,7.6,67,0.00,,,0.00,WUHU216HW,2013-02-01 17:56:00,
2013-02-01 13:01:00,14.5,5.5,30.35,West,270,0.0,7.6,67,0.00,,,0.00,WUHU216HW,2013-02-01 18:01:00,
2013-02-01 13:06:00,15.0,6.3,30.35,NW,315,5.1,5.1,68,0.00,,,0.00,WUHU216HW,2013-02-01 18:06:00,
2013-02-01 13:11:00,15.9,7.1,30.35,West,270,0.0,5.1,68,0.00,,,0.00,WUHU216HW,2013-02-01 18:11:00,
2013-02-01 13:16:00,16.3,7.2,30.34,ESE,113,3.3,10.0,67,0.02,,,0.02,WUHU216HW,2013-02-01 18:16:00,
2013-02-01 13:21:00,16.3,7.2,30.34,SSE,158,9.3,10.0,67,0.02,,,0.02,WUHU216HW,2013-02-01 18:21:00,
2013-02-01 13:26:00,15.9,6.5,30.34,WSW,248,0.0,9.3,66,0.02,,,0.02,WUHU216HW,2013-02-01 18:26:00,
2013-02-01 13:31:00,16.1,6.6,30.34,West,270,5.8,9.3,66,0.02,,,0.02,WUHU216HW,2013-02-01 18:31:00,
2013-02-01 13:36:00,15.9,6.5,30.34,West,270,3.3,5.8,66,0.02,,,0.02,WUHU216HW,2013-02-01 18:36:00,
2013-02-01 13:41:00,16.1,6.6,30.33,NW,315,0.0,10.2,66,0.02,,,0.02,WUHU216HW,2013-02-01 18:41:00,
2013-02-01 13:46:00,16.5,7.0,30.33,West,270,0.0,10.2,66,0.02,,,0.02,WUHU216HW,2013-02-01 18:46:00,
2013-02-01 13:51:00,16.8,7.4,30.33,NE,45,0.0,3.1,66,0.02,,,0.02,WUHU216HW,2013-02-01 18:51:00,
2013-02-01 13:56:00,17.2,7.7,30.33,WSW,248,4.2,4.2,66,0.02,,,0.02,WUHU216HW,2013-02-01 18:56:00,
2013-02-01 14:01:00,17.2,7.7,30.32,SSW,203,8.5,8.5,66,0.02,,,0.02,WUHU216HW,2013-02-01 19:01:00,
2013-02-01 14:06:00,17.2,7.4,30.33,WSW,248,2.4,8.5,65,0.02,,,0.02,WUHU216HW,2013-02-01 19:06:00,
2013-02-01 14:11:00,16.8,7.0,30.33,NW,315,7.8,7.8,65,0.02,,,0.02,WUHU216HW,2013-02-01 19:11:00,
2013-02-01 14:16:00,16.8,7.0,30.32,West,270,6.4,7.8,65,0.00,,,0.02,WUHU216HW,2013-02-01 19:16:00,
2013-02-01 14:21:00,16.7,7.0,30.32,West,270,6.0,8.7,65,0.00,,,0.02,WUHU216HW,2013-02-01 19:21:00,
2013-02-01 14:26:00,16.8,7.0,30.32,WNW,293,0.0,8.7,65,0.00,,,0.02,WUHU216HW,2013-02-01 19:26:00,
2013-02-01 14:31:00,17.2,7.7,30.32,North,0,0.0,6.0,66,0.00,,,0.02,WUHU216HW,2013-02-01 19:31:00,
2013-02-01 14:36:00,17.2,7.7,30.32,NW,315,1.5,1.5,66,0.00,,,0.02,WUHU216HW,2013-02-01 19:36:00,
2013-02-01 14:41:00,17.2,7.4,30.32,SSW,203,0.0,5.8,65,0.00,,,0.02,WUHU216HW,2013-02-01 19:41:00,
2013-02-01 14:46:00,17.2,7.7,30.32,NW,315,7.6,7.6,66,0.00,,,0.02,WUHU216HW,2013-02-01 19:46:00,
2013-02-01 14:51:00,17.4,7.6,30.32,West,270,3.8,7.6,66,0.00,,,0.02,WUHU216HW,2013-02-01 19:51:00,
2013-02-01 14:56:00,17.7,8.2,30.32,SW,225,5.1,6.7,66,0.00,,,0.02,WUHU216HW,2013-02-01 19:56:00,
2013-02-01 15:01:00,17.7,7.9,30.31,NW,315,0.0,5.1,65,0.00,,,0.02,WUHU216HW,2013-02-01 20:01:00,
2013-02-01 15:06:00,17.7,7.9,30.31,WSW,248,3.5,8.0,65,0.00,,,0.02,WUHU216HW,2013-02-01 20:06:00,
2013-02-01 15:11:00,17.7,7.9,30.31,WSW,248,0.0,8.0,65,0.00,,,0.02,WUHU216HW,2013-02-01 20:11:00,
2013-02-01 15:16:00,17.7,7.9,30.30,SW,225,6.7,6.7,65,0.00,,,0.02,WUHU216HW,2013-02-01 20:16:00,
2013-02-01 15:21:00,17.9,8.1,30.30,NW,315,3.8,6.7,65,0.00,,,0.02,WUHU216HW,2013-02-01 20:21:00,
2013-02-01 15:26:00,17.9,7.7,30.30,WNW,293,0.0,5.8,64,0.00,,,0.02,WUHU216HW,2013-02-01 20:26:00,
2013-02-01 15:31:00,17.7,7.6,30.30,West,270,8.2,8.2,64,0.00,,,0.02,WUHU216HW,2013-02-01 20:31:00,
2013-02-01 15:36:00,17.7,7.6,30.30,West,270,4.2,8.2,64,0.00,,,0.02,WUHU216HW,2013-02-01 20:36:00,
2013-02-01 15:41:00,17.6,7.4,30.30,SW,225,8.2,8.2,64,0.00,,,0.02,WUHU216HW,2013-02-01 20:41:00,
2013-02-01 15:46:00,17.6,7.4,30.30,NW,315,3.1,8.2,64,0.00,,,0.02,WUHU216HW,2013-02-01 20:46:00,
2013-02-01 15:51:00,17.7,7.9,30.30,SSW,203,0.0,8.2,65,0.00,,,0.02,WUHU216HW,2013-02-01 20:51:00,
2013-02-01 15:56:00,18.3,8.4,30.30,West,270,0.0,4.0,65,0.00,,,0.02,WUHU216HW,2013-02-01 20:56:00,
2013-02-01 16:01:00,18.3,8.4,30.30,SW,225,6.7,6.7,65,0.00,,,0.02,WUHU216HW,2013-02-01 21:01:00,
2013-02-01 16:06:00,18.5,8.2,30.30,SSW,203,4.2,6.7,64,0.00,,,0.02,WUHU216HW,2013-02-01 21:06:00,
2013-02-01 16:11:00,18.6,8.4,30.30,South,180,3.8,4.2,64,0.00,,,0.02,WUHU216HW,2013-02-01 21:11:00,
2013-02-01 16:16:00,18.6,8.4,30.30,SSE,158,0.0,4.2,64,0.00,,,0.02,WUHU216HW,2013-02-01 21:16:00,
2013-02-01 16:21:00,18.6,8.4,30.30,South,180,4.2,4.2,64,0.00,,,0.02,WUHU216HW,2013-02-01 21:21:00,
2013-02-01 16:26:00,18.8,8.5,30.30,West,270,0.0,4.2,64,0.00,,,0.02,WUHU216HW,2013-02-01 21:26:00,
2013-02-01 16:31:00,19.0,8.7,30.30,WSW,248,0.0,4.2,64,0.00,,,0.02,WUHU216HW,2013-02-01 21:31:00,
2013-02-01 16:36:00,19.2,8.9,30.30,SW,225,8.0,8.0,64,0.00,,,0.02,WUHU216HW,2013-02-01 21:36:00,
2013-02-01 16:41:00,19.2,8.9,30.30,SE,135,5.1,8.0,64,0.00,,,0.02,WUHU216HW,2013-02-01 21:41:00,
2013-02-01 16:46:00,19.4,9.0,30.30,SSE,158,0.0,8.0,64,0.00,,,0.02,WUHU216HW,2013-02-01 21:46:00,
2013-02-01 16:51:00,19.5,9.2,30.30,SSE,158,0.0,5.1,64,0.00,,,0.02,WUHU216HW,2013-02-01 21:51:00,
2013-02-01 16:56:00,19.5,9.2,30.30,West,270,0.0,1.7,64,0.00,,,0.02,WUHU216HW,2013-02-01 21:56:00,
2013-02-01 17:01:00,19.5,9.2,30.30,SW,225,0.0,1.7,64,0.00,,,0.02,WUHU216HW,2013-02-01 22:01:00,
2013-02-01 17:06:00,19.5,8.9,30.30,SW,225,5.8,5.8,63,0.00,,,0.02,WUHU216HW,2013-02-01 22:06:00,
2013-02-01 17:11:00,19.5,8.9,30.30,West,270,0.0,5.8,63,0.00,,,0.02,WUHU216HW,2013-02-01 22:11:00,
2013-02-01 17:16:00,19.2,8.5,30.30,WSW,248,8.7,8.7,63,0.00,,,0.02,WUHU216HW,2013-02-01 22:16:00,
2013-02-01 17:22:00,19.0,8.5,30.30,WSW,248,0.0,8.7,63,0.00,,,0.02,WUHU216HW,2013-02-01 22:22:00,
2013-02-01 17:27:00,18.8,8.2,30.30,WNW,293,0.0,6.0,63,0.00,,,0.02,WUHU216HW,2013-02-01 22:27:00,
2013-02-01 17:32:00,18.5,7.9,30.30,WNW,293,0.0,6.0,63,0.00,,,0.02,WUHU216HW,2013-02-01 22:32:00,
2013-02-01 17:37:00,18.1,7.5,30.30,SW,225,0.0,5.1,63,0.00,,,0.02,WUHU216HW,2013-02-01 22:37:00,
2013-02-01 17:42:00,17.9,7.7,30.30,West,270,0.0,5.1,64,0.00,,,0.02,WUHU216HW,2013-02-01 22:42:00,
2013-02-01 17:47:00,17.9,7.7,30.30,WNW,293,0.0,0.0,64,0.00,,,0.02,WUHU216HW,2013-02-01 22:47:00,
2013-02-01 17:52:00,17.7,7.6,30.29,WSW,248,0.0,1.5,64,0.00,,,0.02,WUHU216HW,2013-02-01 22:52:00,
2013-02-01 17:57:00,17.7,7.6,30.29,SW,225,0.0,1.5,64,0.00,,,0.02,WUHU216HW,2013-02-01 22:57:00,
2013-02-01 18:02:00,17.7,7.6,30.29,SSW,203,0.0,2.0,64,0.00,,,0.02,WUHU216HW,2013-02-01 23:02:00,
2013-02-01 18:07:00,17.4,7.2,30.29,WNW,293,0.0,2.0,64,0.00,,,0.02,WUHU216HW,2013-02-01 23:07:00,
2013-02-01 18:12:00,17.4,7.2,30.29,West,270,0.0,0.0,64,0.00,,,0.02,WUHU216HW,2013-02-01 23:12:00,
2013-02-01 18:17:00,17.2,7.0,30.29,West,270,3.3,3.3,64,0.00,,,0.02,WUHU216HW,2013-02-01 23:17:00,
2013-02-01 18:22:00,17.2,7.0,30.29,West,270,0.0,3.3,64,0.00,,,0.02,WUHU216HW,2013-02-01 23:22:00,
2013-02-01 18:27:00,17.2,7.0,30.29,West,270,0.0,0.0,64,0.00,,,0.02,WUHU216HW,2013-02-01 23:27:00,
2013-02-01 18:32:00,17.2,7.4,30.29,West,270,0.0,0.0,65,0.00,,,0.02,WUHU216HW,2013-02-01 23:32:00,
2013-02-01 18:37:00,17.2,7.4,30.29,West,270,0.0,0.0,65,0.00,,,0.02,WUHU216HW,2013-02-01 23:37:00,
2013-02-01 18:42:00,17.2,7.4,30.29,West,270,0.0,0.0,65,0.00,,,0.02,WUHU216HW,2013-02-01 23:42:00,
2013-02-01 18:47:00,17.2,7.4,30.28,West,270,0.0,0.0,65,0.00,,,0.02,WUHU216HW,2013-02-01 23:47:00,
2013-02-01 18:52:00,16.8,7.0,30.28,West,270,0.0,0.0,65,0.00,,,0.02,WUHU216HW,2013-02-01 23:52:00,
2013-02-01 18:57:00,16.8,7.0,30.28,West,270,0.0,0.0,65,0.00,,,0.02,WUHU216HW,2013-02-01 23:57:00,
2013-02-01 19:02:00,16.8,7.0,30.28,West,270,0.0,0.0,65,0.00,,,0.02,WUHU216HW,2013-02-02 00:02:00,
2013-02-01 19:07:00,16.7,7.2,30.28,West,270,0.0,0.0,66,0.00,,,0.02,WUHU216HW,2013-02-02 00:07:00,
2013-02-01 19:12:00,16.5,7.0,30.28,West,270,0.0,0.0,66,0.00,,,0.02,WUHU216HW,2013-02-02 00:12:00,
2013-02-01 19:17:00,16.3,6.8,30.27,West,270,0.0,0.0,66,0.00,,,0.02,WUHU216HW,2013-02-02 00:17:00,
2013-02-01 19:22:00,16.3,6.8,30.27,West,270,0.0,0.0,66,0.00,,,0.02,WUHU216HW,2013-02-02 00:22:00,
2013-02-01 19:27:00,16.1,6.6,30.27,West,270,0.0,0.0,66,0.00,,,0.02,WUHU216HW,2013-02-02 00:27:00,
2013-02-01 19:32:00,15.9,6.5,30.27,West,270,0.0,0.0,66,0.00,,,0.02,WUHU216HW,2013-02-02 00:32:00,
2013-02-01 19:37:00,15.8,6.6,30.27,West,270,0.0,0.0,67,0.00,,,0.02,WUHU216HW,2013-02-02 00:37:00,
2013-02-01 19:42:00,15.6,6.5,30.27,West,270,0.0,0.0,67,0.00,,,0.02,WUHU216HW,2013-02-02 00:42:00,
2013-02-01 19:47:00,15.6,6.5,30.28,West,270,0.0,0.0,67,0.00,,,0.02,WUHU216HW,2013-02-02 00:47:00,
2013-02-01 19:52:00,15.0,6.0,30.28,West,270,0.0,0.0,67,0.00,,,0.02,WUHU216HW,2013-02-02 00:52:00,
2013-02-01 19:57:00,14.9,5.8,30.28,West,270,0.0,0.0,67,0.00,,,0.02,WUHU216HW,2013-02-02 00:57:00,
2013-02-01 20:02:00,14.7,6.0,30.28,West,270,0.0,0.0,68,0.00,,,0.02,WUHU216HW,2013-02-02 01:02:00,
2013-02-01 20:07:00,14.7,6.0,30.28,West,270,0.0,0.0,68,0.00,,,0.02,WUHU216HW,2013-02-02 01:07:00,
2013-02-01 20:12:00,14.7,6.0,30.29,West,270,0.0,0.0,68,0.00,,,0.02,WUHU216HW,2013-02-02 01:12:00,
2013-02-01 20:17:00,14.7,6.0,30.29,West,270,0.0,0.0,68,0.00,,,0.02,WUHU216HW,2013-02-02 01:17:00,
2013-02-01 20:22:00,14.7,6.0,30.29,West,270,0.0,0.0,68,0.00,,,0.02,WUHU216HW,2013-02-02 01:22:00,
2013-02-01 20:27:00,14.7,6.0,30.29,West,270,0.0,0.0,68,0.00,,,0.02,WUHU216HW,2013-02-02 01:27:00,
2013-02-01 20:32:00,14.9,6.5,30.29,West,270,0.0,0.0,69,0.00,,,0.02,WUHU216HW,2013-02-02 01:32:00,
2013-02-01 20:37:00,15.0,6.7,30.29,West,270,0.0,0.0,69,0.00,,,0.02,WUHU216HW,2013-02-02 01:37:00,
2013-02-01 20:42:00,15.0,6.7,30.28,West,270,0.0,0.0,69,0.00,,,0.02,WUHU216HW,2013-02-02 01:42:00,
2013-02-01 20:47:00,15.4,7.0,30.28,West,270,0.0,0.0,69,0.00,,,0.02,WUHU216HW,2013-02-02 01:47:00,
2013-02-01 20:52:00,15.6,7.5,30.29,West,270,0.0,0.0,70,0.00,,,0.02,WUHU216HW,2013-02-02 01:52:00,
2013-02-01 20:57:00,15.6,7.5,30.28,West,270,0.0,0.0,70,0.00,,,0.02,WUHU216HW,2013-02-02 01:57:00,
2013-02-01 21:02:00,15.6,7.5,30.28,West,270,0.0,0.0,70,0.00,,,0.02,WUHU216HW,2013-02-02 02:02:00,
2013-02-01 21:07:00,15.8,7.7,30.28,West,270,0.0,0.0,70,0.00,,,0.02,WUHU216HW,2013-02-02 02:07:00,
2013-02-01 21:12:00,15.9,7.8,30.27,West,270,0.0,0.0,70,0.00,,,0.02,WUHU216HW,2013-02-02 02:12:00,
2013-02-01 21:17:00,15.9,7.8,30.27,West,270,0.0,0.0,70,0.00,,,0.02,WUHU216HW,2013-02-02 02:17:00,
2013-02-01 21:22:00,16.1,8.0,30.27,West,270,0.0,0.0,70,0.00,,,0.02,WUHU216HW,2013-02-02 02:22:00,
2013-02-01 21:27:00,16.3,8.2,30.27,West,270,0.0,0.0,70,0.00,,,0.02,WUHU216HW,2013-02-02 02:27:00,
2013-02-01 21:32:00,16.3,8.2,30.26,West,270,0.0,0.0,70,0.00,,,0.02,WUHU216HW,2013-02-02 02:32:00,
2013-02-01 21:37:00,16.3,8.2,30.26,West,270,0.0,0.0,70,0.00,,,0.02,WUHU216HW,2013-02-02 02:37:00,
2013-02-01 21:42:00,16.5,8.4,30.26,West,270,0.0,0.0,70,0.00,,,0.02,WUHU216HW,2013-02-02 02:42:00,
2013-02-01 21:47:00,16.5,8.4,30.26,West,270,0.0,0.0,70,0.00,,,0.02,WUHU216HW,2013-02-02 02:47:00,
2013-02-01 21:52:00,16.5,8.4,30.25,West,270,0.0,0.0,70,0.00,,,0.02,WUHU216HW,2013-02-02 02:52:00,
2013-02-01 21:57:00,16.5,8.4,30.26,West,270,0.0,0.0,70,0.00,,,0.02,WUHU216HW,2013-02-02 02:57:00,
2013-02-01 22:02:00,16.3,8.2,30.26,West,270,0.0,0.0,70,0.00,,,0.02,WUHU216HW,2013-02-02 03:02:00,
2013-02-01 22:07:00,16.3,8.2,30.26,West,270,0.0,0.0,70,0.00,,,0.02,WUHU216HW,2013-02-02 03:07:00,
2013-02-01 22:12:00,16.3,8.2,30.26,West,270,0.0,0.0,70,0.00,,,0.02,WUHU216HW,2013-02-02 03:12:00,
2013-02-01 22:17:00,16.1,8.0,30.25,West,270,0.0,0.0,70,0.00,,,0.02,WUHU216HW,2013-02-02 03:17:00,
2013-02-01 22:22:00,16.1,8.0,30.25,West,270,0.0,0.0,70,0.00,,,0.02,WUHU216HW,2013-02-02 03:22:00,
2013-02-01 22:27:00,15.9,7.8,30.25,West,270,0.0,0.0,70,0.00,,,0.02,WUHU216HW,2013-02-02 03:27:00,
2013-02-01 22:32:00,15.9,8.1,30.24,West,270,0.0,0.0,71,0.00,,,0.02,WUHU216HW,2013-02-02 03:32:00,
2013-02-01 22:37:00,15.6,7.8,30.24,West,270,0.0,0.0,71,0.00,,,0.02,WUHU216HW,2013-02-02 03:37:00,
2013-02-01 22:42:00,15.6,7.8,30.24,West,270,0.0,0.0,71,0.00,,,0.02,WUHU216HW,2013-02-02 03:42:00,
2013-02-01 22:47:00,15.6,7.8,30.24,West,270,0.0,0.0,71,0.00,,,0.02,WUHU216HW,2013-02-02 03:47:00,
2013-02-01 22:52:00,15.4,7.6,30.24,West,270,0.0,0.0,71,0.00,,,0.02,WUHU216HW,2013-02-02 03:52:00,
2013-02-01 22:57:00,15.4,7.6,30.23,West,270,0.0,0.0,71,0.00,,,0.02,WUHU216HW,2013-02-02 03:57:00,
2013-02-01 23:02:00,15.2,7.5,30.23,West,270,0.0,0.0,71,0.00,,,0.02,WUHU216HW,2013-02-02 04:02:00,
2013-02-01 23:07:00,15.0,7.3,30.23,West,270,0.0,0.0,71,0.00,,,0.02,WUHU216HW,2013-02-02 04:07:00,
2013-02-01 23:12:00,15.0,7.3,30.23,West,270,0.0,0.0,71,0.00,,,0.02,WUHU216HW,2013-02-02 04:12:00,
2013-02-01 23:17:00,15.0,7.3,30.23,West,270,0.0,0.0,71,0.00,,,0.02,WUHU216HW,2013-02-02 04:17:00,
2013-02-01 23:22:00,14.9,7.4,30.22,West,270,0.0,0.0,72,0.00,,,0.02,WUHU216HW,2013-02-02 04:22:00,
2013-02-01 23:27:00,14.9,7.4,30.22,West,270,0.0,0.0,72,0.00,,,0.02,WUHU216HW,2013-02-02 04:27:00,
2013-02-01 23:32:00,14.9,7.4,30.22,West,270,0.0,0.0,72,0.00,,,0.02,WUHU216HW,2013-02-02 04:32:00,
2013-02-01 23:37:00,14.7,7.3,30.22,West,270,0.0,0.0,72,0.00,,,0.02,WUHU216HW,2013-02-02 04:37:00,
2013-02-01 23:42:00,14.7,7.3,30.22,West,270,0.0,0.0,72,0.00,,,0.02,WUHU216HW,2013-02-02 04:42:00,
2013-02-01 23:47:00,14.7,7.3,30.22,West,270,0.0,0.0,72,0.00,,,0.02,WUHU216HW,2013-02-02 04:47:00,
2013-02-01 23:52:00,14.7,7.3,30.22,West,270,0.0,0.0,72,0.00,,,0.02,WUHU216HW,2013-02-02 04:52:00,
2013-02-01 23:57:00,14.7,7.3,30.22,West,270,0.0,0.0,72,0.00,,,0.02,WUHU216HW,2013-02-02 04:57:00,